createdAt,value
2018-08-24T00:02:09.586Z,19.50
2018-08-24T00:04:39.020Z,19.46
2018-08-24T00:07:09.479Z,19.42
2018-08-24T00:09:38.935Z,19.40
2018-08-24T00:12:08.442Z,19.42
2018-08-24T00:14:37.875Z,19.38
2018-08-24T00:17:12.375Z,19.44
2018-08-24T00:19:41.788Z,19.40
2018-08-24T00:22:11.191Z,19.39
2018-08-24T00:24:40.640Z,19.44
2018-08-24T00:27:10.031Z,19.33
2018-08-24T00:29:39.470Z,19.30
2018-08-24T00:32:08.877Z,19.31
2018-08-24T00:34:38.358Z,19.30
2018-08-24T00:37:07.888Z,19.29
2018-08-24T00:39:37.386Z,19.25
2018-08-24T00:42:06.840Z,19.21
2018-08-24T00:44:36.249Z,19.22
2018-08-24T00:47:05.721Z,19.18
2018-08-24T00:49:35.174Z,19.16
2018-08-24T00:52:04.625Z,19.08
2018-08-24T00:54:34.076Z,19.03
2018-08-24T00:57:03.729Z,19.08
2018-08-24T00:59:33.139Z,19.05
2018-08-24T01:02:03.344Z,19.04
2018-08-24T01:04:34.317Z,19.02
2018-08-24T01:07:10.265Z,19.03
2018-08-24T01:09:40.301Z,19.01
2018-08-24T01:12:14.944Z,18.98
2018-08-24T01:14:48.435Z,18.92
2018-08-24T01:17:22.969Z,18.88
2018-08-24T01:19:52.405Z,18.86
2018-08-24T01:22:22.792Z,18.91
2018-08-24T01:24:52.226Z,18.89
2018-08-24T01:27:21.657Z,18.90
2018-08-24T01:29:51.112Z,18.86
2018-08-24T01:32:20.547Z,18.83
2018-08-24T01:34:52.033Z,18.80
2018-08-24T01:37:21.528Z,18.81
2018-08-24T01:39:50.986Z,18.74
2018-08-24T01:42:20.453Z,18.71
2018-08-24T01:44:49.822Z,18.74
2018-08-24T01:47:19.258Z,18.69
2018-08-24T01:49:48.667Z,18.70
2018-08-24T01:52:18.111Z,18.71
2018-08-24T01:54:47.508Z,18.71
2018-08-24T01:57:16.976Z,18.68
2018-08-24T01:59:46.365Z,18.68
2018-08-24T02:02:15.785Z,18.65
2018-08-24T02:04:45.299Z,18.69
2018-08-24T02:07:14.690Z,18.73
2018-08-24T02:09:44.131Z,18.73
2018-08-24T02:12:18.672Z,18.69
2018-08-24T02:14:48.132Z,18.69
2018-08-24T02:17:22.612Z,18.73
2018-08-24T02:19:57.056Z,18.72
2018-08-24T02:22:26.451Z,18.76
2018-08-24T02:24:56.503Z,18.75
2018-08-24T02:27:25.910Z,18.74
2018-08-24T02:29:57.144Z,18.74
2018-08-24T02:32:26.778Z,18.75
2018-08-24T02:34:59.031Z,18.77
2018-08-24T02:37:29.864Z,18.73
2018-08-24T02:39:59.311Z,18.67
2018-08-24T02:42:28.712Z,18.68
2018-08-24T02:44:58.195Z,18.68
2018-08-24T02:47:27.559Z,18.66
2018-08-24T02:49:58.211Z,18.68
2018-08-24T02:52:27.655Z,18.68
2018-08-24T02:54:57.074Z,18.62
2018-08-24T02:57:26.484Z,18.63
2018-08-24T02:59:55.900Z,18.59
2018-08-24T03:02:25.288Z,18.62
2018-08-24T03:04:54.801Z,18.60
2018-08-24T03:07:24.507Z,18.56
2018-08-24T03:09:53.928Z,18.56
2018-08-24T03:12:23.388Z,18.58
2018-08-24T03:14:52.763Z,18.52
2018-08-24T03:17:27.376Z,18.52
2018-08-24T03:19:56.743Z,18.49
2018-08-24T03:22:26.139Z,18.40
2018-08-24T03:24:56.159Z,18.38
2018-08-24T03:27:25.594Z,18.37
2018-08-24T03:29:54.961Z,18.36
2018-08-24T03:32:24.406Z,18.31
2018-08-24T03:34:53.854Z,18.28
2018-08-24T03:37:23.304Z,18.23
2018-08-24T03:39:52.710Z,18.21
2018-08-24T03:42:22.107Z,18.15
2018-08-24T03:44:51.527Z,18.12
2018-08-24T03:47:20.980Z,18.11
2018-08-24T03:49:50.435Z,18.05
2018-08-24T03:52:19.889Z,18.02
2018-08-24T03:54:49.265Z,18.04
2018-08-24T03:57:18.664Z,18.02
2018-08-24T03:59:48.122Z,18.04
2018-08-24T04:02:17.482Z,17.99
2018-08-24T04:04:46.896Z,17.99
2018-08-24T04:07:16.287Z,17.96
2018-08-24T04:09:45.698Z,17.97
2018-08-24T04:12:15.107Z,17.99
2018-08-24T04:14:44.556Z,17.89
2018-08-24T04:17:19.123Z,17.87
2018-08-24T04:19:48.588Z,17.84
2018-08-24T04:22:18.023Z,17.80
2018-08-24T04:24:47.501Z,17.83
2018-08-24T04:27:16.954Z,17.84
2018-08-24T04:29:46.413Z,17.86
2018-08-24T04:32:15.827Z,17.88
2018-08-24T04:34:45.235Z,17.88
2018-08-24T04:37:14.684Z,17.90
2018-08-24T04:39:44.122Z,17.88
2018-08-24T04:42:13.591Z,17.80
2018-08-24T04:44:43.022Z,17.81
2018-08-24T04:47:12.459Z,17.74
2018-08-24T04:49:41.910Z,17.72
2018-08-24T04:52:11.296Z,17.69
2018-08-24T04:54:41.607Z,17.71
2018-08-24T04:57:11.073Z,17.69
2018-08-24T04:59:40.487Z,17.64
2018-08-24T05:02:10.226Z,17.58
2018-08-24T05:04:39.739Z,17.59
2018-08-24T05:07:09.096Z,17.58
2018-08-24T05:09:38.505Z,17.64
2018-08-24T05:12:09.424Z,17.59
2018-08-24T05:14:38.920Z,17.58
2018-08-24T05:17:08.323Z,17.59
2018-08-24T05:19:37.726Z,17.57
2018-08-24T05:22:07.321Z,17.62
2018-08-24T05:24:36.798Z,17.63
2018-08-24T05:27:06.252Z,17.68
2018-08-24T05:29:35.742Z,17.70
2018-08-24T05:32:05.166Z,17.77
2018-08-24T05:34:34.617Z,17.79
2018-08-24T05:37:04.072Z,17.85
2018-08-24T05:39:33.482Z,17.84
2018-08-24T05:42:02.922Z,17.82
2018-08-24T05:44:32.346Z,17.85
2018-08-24T05:47:01.764Z,17.88
2018-08-24T05:49:31.225Z,17.86
2018-08-24T05:52:01.508Z,17.87
2018-08-24T05:54:31.000Z,17.87
2018-08-24T05:57:00.399Z,17.88
2018-08-24T05:59:29.864Z,17.86
2018-08-24T06:01:59.276Z,17.87
2018-08-24T06:04:28.747Z,17.88
2018-08-24T06:06:59.176Z,17.88
2018-08-24T06:09:28.597Z,17.86
2018-08-24T06:11:59.167Z,17.84
2018-08-24T06:14:28.587Z,17.80
2018-08-24T06:17:03.189Z,17.79
2018-08-24T06:19:32.660Z,17.75
2018-08-24T06:22:02.041Z,17.75
2018-08-24T06:24:31.527Z,17.77
2018-08-24T06:27:00.915Z,17.76
2018-08-24T06:29:30.929Z,17.78
2018-08-24T06:32:00.504Z,17.82
2018-08-24T06:34:29.944Z,17.81
2018-08-24T06:36:59.414Z,17.80
2018-08-24T06:39:28.783Z,17.80
2018-08-24T06:41:58.321Z,17.79
2018-08-24T06:44:27.741Z,17.79
2018-08-24T06:46:57.209Z,17.79
2018-08-24T06:49:26.619Z,17.79
2018-08-24T06:51:56.015Z,17.76
2018-08-24T06:54:25.486Z,17.74
2018-08-24T06:56:54.956Z,17.75
2018-08-24T06:59:24.401Z,17.75
2018-08-24T07:01:53.814Z,17.68
2018-08-24T07:04:23.252Z,17.69
2018-08-24T07:06:52.673Z,17.74
2018-08-24T07:09:23.310Z,17.72
2018-08-24T07:11:52.861Z,17.66
2018-08-24T07:14:23.336Z,17.59
2018-08-24T07:16:57.604Z,17.53
2018-08-24T07:19:27.331Z,17.49
2018-08-24T07:21:56.806Z,17.48
2018-08-24T07:24:27.240Z,17.46
2018-08-24T07:26:57.166Z,17.47
2018-08-24T07:29:26.964Z,17.41
2018-08-24T07:31:56.430Z,17.32
2018-08-24T07:34:25.863Z,17.27
2018-08-24T07:36:55.374Z,17.19
2018-08-24T07:39:24.872Z,17.13
2018-08-24T07:41:55.314Z,17.10
2018-08-24T07:44:24.713Z,17.13
2018-08-24T07:46:54.177Z,17.08
2018-08-24T07:49:23.622Z,17.04
2018-08-24T07:51:53.115Z,17.06
2018-08-24T07:54:22.543Z,17.10
2018-08-24T07:56:52.073Z,17.17
2018-08-24T07:59:21.405Z,17.22
2018-08-24T08:01:50.837Z,17.28
2018-08-24T08:04:20.256Z,17.34
2018-08-24T08:06:49.632Z,17.36
2018-08-24T08:09:19.131Z,17.34
2018-08-24T08:11:48.523Z,17.31
2018-08-24T08:14:17.987Z,17.31
2018-08-24T08:16:47.388Z,17.32
2018-08-24T08:19:16.755Z,17.33
2018-08-24T08:21:46.926Z,17.33
2018-08-24T08:24:16.299Z,17.36
2018-08-24T08:26:45.764Z,17.39
2018-08-24T08:29:20.267Z,17.44
2018-08-24T08:31:49.929Z,17.47
2018-08-24T08:34:19.395Z,17.47
2018-08-24T08:36:48.984Z,17.54
2018-08-24T08:39:18.470Z,17.59
2018-08-24T08:41:47.955Z,17.60
2018-08-24T08:44:17.361Z,17.59
2018-08-24T08:46:46.812Z,17.64
2018-08-24T08:49:16.216Z,17.63
2018-08-24T08:51:45.712Z,17.59
2018-08-24T08:54:15.135Z,17.61
2018-08-24T08:56:44.549Z,17.60
2018-08-24T08:59:13.967Z,17.66
2018-08-24T09:01:43.437Z,17.65
2018-08-24T09:04:12.842Z,17.65
2018-08-24T09:06:42.262Z,17.73
2018-08-24T09:09:11.839Z,17.69
2018-08-24T09:11:41.329Z,17.71
2018-08-24T09:14:10.743Z,17.75
2018-08-24T09:16:40.203Z,17.78
2018-08-24T09:19:14.957Z,17.81
2018-08-24T09:21:50.119Z,17.82
2018-08-24T09:24:24.881Z,17.91
2018-08-24T09:28:00.432Z,17.96
2018-08-24T09:30:33.799Z,18.04
2018-08-24T09:33:03.240Z,18.10
2018-08-24T09:35:32.621Z,18.12
2018-08-24T09:38:02.110Z,18.15
2018-08-24T09:40:36.727Z,18.21
2018-08-24T09:43:12.462Z,18.27
2018-08-24T09:45:41.954Z,18.28
2018-08-24T09:48:16.507Z,18.35
2018-08-24T09:50:51.245Z,18.35
2018-08-24T09:53:25.881Z,18.33
2018-08-24T09:55:55.272Z,18.31
2018-08-24T09:58:24.677Z,18.32
2018-08-24T10:00:59.328Z,18.29
2018-08-24T10:03:33.867Z,18.31
2018-08-24T10:06:08.596Z,18.36
2018-08-24T10:08:43.048Z,18.35
2018-08-24T10:11:12.486Z,18.31
2018-08-24T10:13:41.933Z,18.32
2018-08-24T10:16:11.443Z,18.40
2018-08-24T10:18:40.871Z,18.48
2018-08-24T10:21:10.361Z,18.52
2018-08-24T10:23:39.765Z,18.53
2018-08-24T10:26:09.286Z,18.55
2018-08-24T10:28:38.694Z,18.66
2018-08-24T10:31:08.096Z,18.72
2018-08-24T10:33:37.576Z,18.81
2018-08-24T10:36:06.985Z,18.89
2018-08-24T10:38:36.409Z,18.90
2018-08-24T10:41:05.931Z,18.92
2018-08-24T10:43:35.366Z,18.98
2018-08-24T10:46:04.793Z,19.05
2018-08-24T10:48:34.261Z,19.10
2018-08-24T10:51:03.644Z,19.16
2018-08-24T10:53:33.068Z,19.28
2018-08-24T10:56:03.105Z,19.38
2018-08-24T10:58:32.505Z,19.45
2018-08-24T11:01:01.972Z,19.44
2018-08-24T11:03:31.390Z,19.42
2018-08-24T11:06:00.790Z,19.45
2018-08-24T11:08:30.223Z,19.49
2018-08-24T11:10:59.754Z,19.55
2018-08-24T11:13:29.178Z,19.63
2018-08-24T11:15:58.615Z,19.57
2018-08-24T11:18:28.032Z,19.61
2018-08-24T11:20:57.430Z,19.68
2018-08-24T11:23:26.935Z,19.69
2018-08-24T11:25:57.337Z,19.79
2018-08-24T11:28:26.780Z,19.76
2018-08-24T11:30:56.257Z,19.84
2018-08-24T11:33:25.703Z,19.93
2018-08-24T11:35:55.101Z,19.98
2018-08-24T11:38:24.516Z,19.96
2018-08-24T11:40:53.921Z,20.03
2018-08-24T11:43:23.504Z,20.03
2018-08-24T11:45:52.889Z,20.02
2018-08-24T11:48:22.336Z,20.05
2018-08-24T11:50:51.759Z,20.09
2018-08-24T11:53:21.229Z,20.05
2018-08-24T11:55:51.769Z,20.08
2018-08-24T11:58:21.275Z,20.10
2018-08-24T12:00:50.710Z,20.11
2018-08-24T12:03:20.096Z,20.19
2018-08-24T12:05:49.593Z,20.22
2018-08-24T12:08:19.086Z,20.29
2018-08-24T12:10:48.573Z,20.31
2018-08-24T12:13:18.641Z,20.36
2018-08-24T12:15:48.128Z,20.39
2018-08-24T12:18:17.647Z,20.38
2018-08-24T12:20:47.139Z,20.40
2018-08-24T12:23:16.563Z,20.43
2018-08-24T12:25:46.002Z,20.41
2018-08-24T12:28:15.512Z,20.45
2018-08-24T12:30:44.987Z,20.45
2018-08-24T12:33:14.440Z,20.46
2018-08-24T12:35:43.912Z,20.54
2018-08-24T12:38:13.399Z,20.62
2018-08-24T12:40:43.889Z,20.68
2018-08-24T12:43:13.440Z,20.72
2018-08-24T12:45:42.900Z,20.77
2018-08-24T12:48:12.360Z,20.82
2018-08-24T12:50:41.833Z,20.86
2018-08-24T12:53:11.328Z,20.92
2018-08-24T12:55:40.764Z,20.96
2018-08-24T12:58:10.287Z,21.02
2018-08-24T13:00:39.760Z,21.11
2018-08-24T13:03:09.242Z,21.13
2018-08-24T13:05:38.698Z,21.19
2018-08-24T13:08:08.170Z,21.27
2018-08-24T13:10:37.621Z,21.35
2018-08-24T13:13:07.138Z,21.41
2018-08-24T13:15:36.574Z,21.43
2018-08-24T13:18:06.189Z,21.44
2018-08-24T13:20:35.647Z,21.46
2018-08-24T13:23:05.833Z,21.46
2018-08-24T13:25:35.305Z,21.40
2018-08-24T13:28:04.804Z,21.43
2018-08-24T13:30:34.263Z,21.38
2018-08-24T13:33:03.744Z,21.37
2018-08-24T13:35:33.861Z,21.37
2018-08-24T13:38:03.329Z,21.42
2018-08-24T13:40:32.774Z,21.48
2018-08-24T13:43:02.231Z,21.54
2018-08-24T13:45:31.676Z,21.59
2018-08-24T13:48:01.180Z,21.64
2018-08-24T13:50:30.566Z,21.73
2018-08-24T13:53:00.087Z,21.77
2018-08-24T13:55:29.577Z,21.83
2018-08-24T13:57:59.051Z,22.02
2018-08-24T14:00:28.520Z,22.08
2018-08-24T14:02:58.281Z,22.18
2018-08-24T14:05:27.826Z,22.15
2018-08-24T14:07:57.206Z,22.21
2018-08-24T14:10:26.651Z,22.19
2018-08-24T14:12:56.090Z,22.17
2018-08-24T14:15:25.503Z,22.22
2018-08-24T14:17:55.884Z,22.29
2018-08-24T14:20:25.571Z,22.26
2018-08-24T14:22:55.090Z,22.35
2018-08-24T14:25:25.035Z,22.32
2018-08-24T14:27:54.564Z,22.37
2018-08-24T14:30:24.183Z,22.41
2018-08-24T14:32:53.858Z,22.41
2018-08-24T14:35:23.374Z,22.39
2018-08-24T14:37:53.499Z,22.34
2018-08-24T14:40:23.040Z,22.33
2018-08-24T14:42:52.629Z,22.31
2018-08-24T14:45:22.165Z,22.22
2018-08-24T14:47:51.629Z,22.24
2018-08-24T14:50:21.056Z,22.22
2018-08-24T14:52:50.700Z,22.28
2018-08-24T14:55:20.183Z,22.23
2018-08-24T14:57:49.801Z,22.31
2018-08-24T15:00:19.331Z,22.29
2018-08-24T15:02:48.821Z,22.32
2018-08-24T15:05:18.339Z,22.32
2018-08-24T15:07:47.815Z,22.33
2018-08-24T15:10:17.266Z,22.31
2018-08-24T15:12:46.757Z,22.27
2018-08-24T15:15:16.192Z,22.31
2018-08-24T15:17:45.674Z,22.30
2018-08-24T15:20:15.217Z,22.20
2018-08-24T15:22:44.723Z,22.22
2018-08-24T15:25:14.188Z,22.24
2018-08-24T15:27:43.641Z,22.31
2018-08-24T15:30:13.080Z,22.31
2018-08-24T15:32:42.580Z,22.34
2018-08-24T15:35:12.045Z,22.36
2018-08-24T15:37:41.484Z,22.37
2018-08-24T15:40:10.981Z,22.41
2018-08-24T15:42:40.429Z,22.45
2018-08-24T15:45:10.004Z,22.44
2018-08-24T15:47:39.569Z,22.42
2018-08-24T15:50:09.048Z,22.43
2018-08-24T15:52:39.152Z,22.31
2018-08-24T15:55:08.563Z,22.22
2018-08-24T15:57:38.009Z,22.07
2018-08-24T16:00:07.983Z,21.99
2018-08-24T16:02:38.245Z,21.97
2018-08-24T16:05:07.721Z,21.97
2018-08-24T16:07:39.701Z,21.92
2018-08-24T16:10:10.107Z,21.92
2018-08-24T16:12:39.638Z,21.88
2018-08-24T16:15:09.746Z,21.89
2018-08-24T16:17:39.203Z,21.83
2018-08-24T16:20:08.721Z,21.86
2018-08-24T16:22:38.203Z,21.83
2018-08-24T16:25:07.688Z,21.77
2018-08-24T16:27:37.133Z,21.66
2018-08-24T16:30:06.709Z,21.67
2018-08-24T16:32:36.256Z,21.68
2018-08-24T16:35:05.750Z,21.66
2018-08-24T16:37:35.208Z,21.69
2018-08-24T16:40:04.670Z,21.71
2018-08-24T16:42:34.132Z,21.73
2018-08-24T16:45:03.631Z,21.66
2018-08-24T16:47:33.051Z,21.67
2018-08-24T16:50:02.559Z,21.66
2018-08-24T16:52:32.124Z,21.63
2018-08-24T16:55:01.611Z,21.41
2018-08-24T16:57:31.238Z,21.37
2018-08-24T17:00:00.872Z,21.36
2018-08-24T17:02:30.375Z,21.34
2018-08-24T17:04:59.853Z,21.27
2018-08-24T17:07:29.342Z,21.24
2018-08-24T17:09:58.900Z,21.11
2018-08-24T17:12:28.762Z,21.05
2018-08-24T17:14:58.162Z,21.00
2018-08-24T17:17:27.632Z,20.96
2018-08-24T17:19:58.517Z,20.90
2018-08-24T17:22:28.883Z,20.85
2018-08-24T17:24:58.340Z,20.81
2018-08-24T17:27:27.850Z,20.77
2018-08-24T17:29:57.326Z,20.78
2018-08-24T17:32:26.829Z,20.71
2018-08-24T17:34:56.248Z,20.64
2018-08-24T17:37:25.691Z,20.54
2018-08-24T17:39:55.616Z,20.45
2018-08-24T17:42:25.095Z,20.47
2018-08-24T17:44:54.563Z,20.44
2018-08-24T17:47:23.960Z,20.38
2018-08-24T17:49:54.132Z,20.36
2018-08-24T17:52:23.545Z,20.26
2018-08-24T17:54:53.169Z,20.22
2018-08-24T17:57:22.572Z,20.21
2018-08-24T17:59:52.132Z,20.18
2018-08-24T18:02:21.638Z,20.11
2018-08-24T18:04:51.066Z,20.08
2018-08-24T18:07:20.628Z,20.04
2018-08-24T18:09:50.050Z,20.04
2018-08-24T18:12:19.493Z,20.04
2018-08-24T18:14:48.957Z,20.00
2018-08-24T18:17:18.527Z,19.92
2018-08-24T18:19:48.046Z,19.93
2018-08-24T18:22:17.518Z,19.82
2018-08-24T18:24:47.026Z,19.77
2018-08-24T18:27:16.514Z,19.76
2018-08-24T18:29:45.990Z,19.73
2018-08-24T18:32:15.518Z,19.65
2018-08-24T18:34:45.045Z,19.59
2018-08-24T18:37:14.492Z,19.49
2018-08-24T18:39:43.912Z,19.50
2018-08-24T18:42:13.347Z,19.41
2018-08-24T18:44:42.789Z,19.33
2018-08-24T18:47:12.231Z,19.21
2018-08-24T18:49:41.598Z,19.19
2018-08-24T18:52:11.128Z,19.13
2018-08-24T18:54:40.542Z,19.06
2018-08-24T18:57:10.030Z,18.99
2018-08-24T18:59:39.458Z,18.90
2018-08-24T19:02:08.919Z,18.88
2018-08-24T19:04:38.334Z,18.87
2018-08-24T19:07:08.218Z,18.81
2018-08-24T19:09:37.670Z,18.69
2018-08-24T19:12:12.402Z,18.57
2018-08-24T19:14:41.900Z,18.49
2018-08-24T19:17:17.427Z,18.39
2018-08-24T19:19:51.840Z,18.27
2018-08-24T19:22:21.316Z,18.20
2018-08-24T19:24:50.855Z,18.14
2018-08-24T19:27:20.319Z,18.07
2018-08-24T19:29:55.003Z,17.99
2018-08-24T19:32:24.466Z,17.92
2018-08-24T19:34:54.727Z,17.85
2018-08-24T19:37:24.377Z,17.75
2018-08-24T19:39:59.346Z,17.67
2018-08-24T19:42:30.573Z,17.75
2018-08-24T19:45:01.577Z,17.76
2018-08-24T19:47:36.335Z,17.67
2018-08-24T19:50:05.912Z,17.59
2018-08-24T19:52:35.396Z,17.50
2018-08-24T19:55:05.001Z,17.43
2018-08-24T19:57:39.500Z,17.37
2018-08-24T20:00:09.034Z,17.29
2018-08-24T20:02:39.366Z,17.26
2018-08-24T20:05:09.010Z,17.20
2018-08-24T20:07:43.684Z,17.17
2018-08-24T20:10:16.449Z,17.11
2018-08-24T20:12:46.684Z,17.07
2018-08-24T20:15:21.247Z,17.00
2018-08-24T20:17:50.696Z,16.91
2018-08-24T20:20:21.035Z,16.90
2018-08-24T20:22:50.465Z,16.87
2018-08-24T20:25:19.897Z,16.80
2018-08-24T20:27:49.341Z,16.75
2018-08-24T20:30:18.791Z,16.66
2018-08-24T20:32:49.943Z,16.62
2018-08-24T20:35:19.366Z,16.57
2018-08-24T20:37:48.810Z,16.49
2018-08-24T20:40:19.246Z,16.39
2018-08-24T20:42:48.664Z,16.38
2018-08-24T20:45:18.103Z,16.35
2018-08-24T20:47:47.491Z,16.33
2018-08-24T20:50:16.963Z,16.28
2018-08-24T20:52:46.458Z,16.26
2018-08-24T20:55:15.938Z,16.18
2018-08-24T20:57:45.355Z,16.17
2018-08-24T21:00:14.813Z,16.12
2018-08-24T21:02:44.206Z,16.09
2018-08-24T21:05:13.684Z,16.07
2018-08-24T21:07:43.103Z,16.03
2018-08-24T21:10:12.588Z,15.99
2018-08-24T21:12:42.290Z,15.91
2018-08-24T21:15:11.730Z,15.84
2018-08-24T21:17:41.184Z,15.78
2018-08-24T21:20:11.160Z,15.72
2018-08-24T21:22:40.723Z,15.64
2018-08-24T21:25:10.335Z,15.59
2018-08-24T21:27:39.786Z,15.59
2018-08-24T21:30:09.283Z,15.60
2018-08-24T21:32:38.683Z,15.55
2018-08-24T21:35:08.200Z,15.50
2018-08-24T21:37:38.129Z,15.49
2018-08-24T21:40:07.570Z,15.55
2018-08-24T21:42:37.061Z,15.56
2018-08-24T21:45:06.668Z,15.54
2018-08-24T21:47:36.098Z,15.53
2018-08-24T21:50:05.885Z,15.54
2018-08-24T21:52:35.281Z,15.56
2018-08-24T21:55:05.373Z,15.49
2018-08-24T21:57:34.768Z,15.46
2018-08-24T22:00:05.031Z,15.51
2018-08-24T22:02:34.570Z,15.45
2018-08-24T22:05:03.964Z,15.49
2018-08-24T22:07:33.390Z,15.52
2018-08-24T22:10:02.808Z,15.49
2018-08-24T22:12:32.400Z,15.46
2018-08-24T22:15:01.896Z,15.47
2018-08-24T22:17:32.317Z,15.43
2018-08-24T22:20:01.797Z,15.42
2018-08-24T22:22:31.241Z,15.42
2018-08-24T22:25:00.775Z,15.42
2018-08-24T22:27:30.263Z,15.41
2018-08-24T22:29:59.810Z,15.39
2018-08-24T22:32:29.227Z,15.38
2018-08-24T22:34:58.752Z,15.33
2018-08-24T22:37:28.719Z,15.33
2018-08-24T22:39:58.184Z,15.34
2018-08-24T22:42:27.622Z,15.29
2018-08-24T22:44:57.022Z,15.28
2018-08-24T22:47:26.523Z,15.31
2018-08-24T22:49:55.903Z,15.32
2018-08-24T22:52:25.408Z,15.33
2018-08-24T22:54:55.603Z,15.39
2018-08-24T22:57:25.142Z,15.39
2018-08-24T22:59:54.620Z,15.46
2018-08-24T23:02:24.104Z,15.49
2018-08-24T23:04:54.093Z,15.50
2018-08-24T23:07:23.552Z,15.44
2018-08-24T23:09:53.075Z,15.27
2018-08-24T23:12:22.551Z,15.31
2018-08-24T23:14:51.988Z,15.32
2018-08-24T23:17:21.482Z,15.23
2018-08-24T23:19:50.919Z,15.24
2018-08-24T23:22:20.489Z,15.17
2018-08-24T23:24:49.870Z,15.18
2018-08-24T23:27:19.291Z,15.10
2018-08-24T23:29:48.724Z,15.10
2018-08-24T23:32:18.145Z,15.02
2018-08-24T23:34:47.714Z,15.05
2018-08-24T23:37:17.142Z,15.00
2018-08-24T23:39:46.597Z,14.94
2018-08-24T23:42:16.139Z,14.90
2018-08-24T23:44:45.653Z,14.88
2018-08-24T23:47:15.167Z,14.82
2018-08-24T23:49:44.660Z,14.67
2018-08-24T23:52:14.090Z,14.62
2018-08-24T23:54:43.642Z,14.63
2018-08-24T23:57:13.112Z,14.64
2018-08-24T23:59:42.574Z,14.63
